sensor_id;sensor_type;location;lat;lon;timestamp;P1;durP1;ratioP1;P2;durP2;ratioP2
27558;SDS011;15002;52.028;5.670;2023-04-01T00:02:18;6.70;;;5.20;;
27558;SDS011;15002;52.028;5.670;2023-04-01T00:04:43;7.55;;;5.07;;
27558;SDS011;15002;52.028;5.670;2023-04-01T00:07:09;8.48;;;5.47;;
27558;SDS011;15002;52.028;5.670;2023-04-01T00:09:35;6.80;;;5.00;;
27558;SDS011;15002;52.028;5.670;2023-04-01T00:12:01;7.65;;;5.45;;
27558;SDS011;15002;52.028;5.670;2023-04-01T00:14:27;9.18;;;5.88;;
27558;SDS011;15002;52.028;5.670;2023-04-01T00:16:54;8.57;;;5.22;;
27558;SDS011;15002;52.028;5.670;2023-04-01T00:19:19;7.45;;;6.30;;
27558;SDS011;15002;52.028;5.670;2023-04-01T00:21:45;7.05;;;5.80;;
27558;SDS011;15002;52.028;5.670;2023-04-01T00:24:11;9.93;;;6.53;;
27558;SDS011;15002;52.028;5.670;2023-04-01T00:26:37;9.57;;;6.95;;
27558;SDS011;15002;52.028;5.670;2023-04-01T00:29:02;14.95;;;7.43;;
27558;SDS011;15002;52.028;5.670;2023-04-01T00:31:28;12.80;;;7.93;;
27558;SDS011;15002;52.028;5.670;2023-04-01T00:33:55;11.25;;;7.78;;
27558;SDS011;15002;52.028;5.670;2023-04-01T00:36:21;12.45;;;8.20;;
27558;SDS011;15002;52.028;5.670;2023-04-01T00:38:48;13.30;;;9.05;;
27558;SDS011;15002;52.028;5.670;2023-04-01T00:41:15;15.90;;;9.32;;
27558;SDS011;15002;52.028;5.670;2023-04-01T00:43:46;13.68;;;9.07;;
27558;SDS011;15002;52.028;5.670;2023-04-01T00:46:13;13.05;;;9.00;;
27558;SDS011;15002;52.028;5.670;2023-04-01T00:48:41;17.25;;;9.52;;
27558;SDS011;15002;52.028;5.670;2023-04-01T00:51:09;18.13;;;9.73;;
27558;SDS011;15002;52.028;5.670;2023-04-01T00:53:40;18.03;;;10.00;;
27558;SDS011;15002;52.028;5.670;2023-04-01T00:56:10;14.27;;;9.88;;
27558;SDS011;15002;52.028;5.670;2023-04-01T00:58:57;16.92;;;9.63;;
27558;SDS011;15002;52.028;5.670;2023-04-01T01:01:25;17.13;;;9.73;;
27558;SDS011;15002;52.028;5.670;2023-04-01T01:03:52;16.25;;;10.13;;
27558;SDS011;15002;52.028;5.670;2023-04-01T01:07:20;19.17;;;9.93;;
27558;SDS011;15002;52.028;5.670;2023-04-01T01:09:24;19.27;;;10.38;;
27558;SDS011;15002;52.028;5.670;2023-04-01T01:11:56;20.70;;;10.73;;
27558;SDS011;15002;52.028;5.670;2023-04-01T01:14:36;20.35;;;10.00;;
27558;SDS011;15002;52.028;5.670;2023-04-01T01:17:17;21.35;;;9.68;;
27558;SDS011;15002;52.028;5.670;2023-04-01T01:22:36;19.02;;;8.70;;
27558;SDS011;15002;52.028;5.670;2023-04-01T01:27:54;17.73;;;8.35;;
27558;SDS011;15002;52.028;5.670;2023-04-01T01:30:38;19.58;;;8.38;;
27558;SDS011;15002;52.028;5.670;2023-04-01T01:35:51;22.20;;;8.88;;
27558;SDS011;15002;52.028;5.670;2023-04-01T01:38:21;18.00;;;9.57;;
27558;SDS011;15002;52.028;5.670;2023-04-01T01:40:51;22.00;;;10.00;;
27558;SDS011;15002;52.028;5.670;2023-04-01T01:43:21;19.50;;;9.13;;
27558;SDS011;15002;52.028;5.670;2023-04-01T01:45:57;18.35;;;10.35;;
27558;SDS011;15002;52.028;5.670;2023-04-01T01:48:26;22.02;;;10.10;;
27558;SDS011;15002;52.028;5.670;2023-04-01T01:50:53;18.63;;;10.13;;
27558;SDS011;15002;52.028;5.670;2023-04-01T01:53:19;20.90;;;10.95;;
27558;SDS011;15002;52.028;5.670;2023-04-01T01:55:45;28.25;;;12.00;;
27558;SDS011;15002;52.028;5.670;2023-04-01T02:00:58;30.90;;;11.93;;
27558;SDS011;15002;52.028;5.670;2023-04-01T02:03:26;24.33;;;12.38;;
27558;SDS011;15002;52.028;5.670;2023-04-01T02:05:55;27.88;;;13.05;;
27558;SDS011;15002;52.028;5.670;2023-04-01T02:08:39;31.42;;;13.68;;
27558;SDS011;15002;52.028;5.670;2023-04-01T02:11:18;32.58;;;13.30;;
27558;SDS011;15002;52.028;5.670;2023-04-01T02:14:24;26.67;;;12.73;;
27558;SDS011;15002;52.028;5.670;2023-04-01T02:16:47;29.90;;;13.90;;
27558;SDS011;15002;52.028;5.670;2023-04-01T02:19:24;29.63;;;12.93;;
27558;SDS011;15002;52.028;5.670;2023-04-01T02:21:57;25.48;;;12.00;;
27558;SDS011;15002;52.028;5.670;2023-04-01T02:24:26;23.08;;;10.73;;
27558;SDS011;15002;52.028;5.670;2023-04-01T02:26:55;26.33;;;10.98;;
27558;SDS011;15002;52.028;5.670;2023-04-01T02:29:21;25.73;;;11.05;;
27558;SDS011;15002;52.028;5.670;2023-04-01T02:31:50;25.75;;;10.02;;
27558;SDS011;15002;52.028;5.670;2023-04-01T02:34:16;26.38;;;9.90;;
27558;SDS011;15002;52.028;5.670;2023-04-01T02:36:43;21.95;;;9.30;;
27558;SDS011;15002;52.028;5.670;2023-04-01T02:39:09;17.27;;;8.10;;
27558;SDS011;15002;52.028;5.670;2023-04-01T02:41:39;27.10;;;9.25;;
27558;SDS011;15002;52.028;5.670;2023-04-01T02:44:05;16.63;;;7.95;;
27558;SDS011;15002;52.028;5.670;2023-04-01T02:46:32;15.88;;;7.35;;
27558;SDS011;15002;52.028;5.670;2023-04-01T02:48:57;22.10;;;8.25;;
27558;SDS011;15002;52.028;5.670;2023-04-01T02:51:23;17.65;;;7.63;;
27558;SDS011;15002;52.028;5.670;2023-04-01T02:53:50;13.00;;;7.00;;
27558;SDS011;15002;52.028;5.670;2023-04-01T02:56:15;17.42;;;8.02;;
27558;SDS011;15002;52.028;5.670;2023-04-01T02:58:41;14.63;;;6.95;;
27558;SDS011;15002;52.028;5.670;2023-04-01T03:01:07;17.67;;;7.65;;
27558;SDS011;15002;52.028;5.670;2023-04-01T03:03:33;14.43;;;7.25;;
27558;SDS011;15002;52.028;5.670;2023-04-01T03:06:04;16.40;;;6.97;;
27558;SDS011;15002;52.028;5.670;2023-04-01T03:08:34;15.80;;;7.07;;
27558;SDS011;15002;52.028;5.670;2023-04-01T03:11:00;15.10;;;7.07;;
27558;SDS011;15002;52.028;5.670;2023-04-01T03:13:26;14.55;;;7.07;;
27558;SDS011;15002;52.028;5.670;2023-04-01T03:15:51;14.63;;;7.35;;
27558;SDS011;15002;52.028;5.670;2023-04-01T03:18:18;14.50;;;6.65;;
27558;SDS011;15002;52.028;5.670;2023-04-01T03:20:44;14.40;;;6.85;;
27558;SDS011;15002;52.028;5.670;2023-04-01T03:23:10;14.95;;;7.50;;
27558;SDS011;15002;52.028;5.670;2023-04-01T03:25:36;14.23;;;7.90;;
27558;SDS011;15002;52.028;5.670;2023-04-01T03:28:02;14.40;;;7.85;;
27558;SDS011;15002;52.028;5.670;2023-04-01T03:30:28;11.13;;;7.28;;
27558;SDS011;15002;52.028;5.670;2023-04-01T03:32:57;12.38;;;8.00;;
27558;SDS011;15002;52.028;5.670;2023-04-01T03:35:24;12.25;;;7.25;;
27558;SDS011;15002;52.028;5.670;2023-04-01T03:37:50;14.57;;;8.38;;
27558;SDS011;15002;52.028;5.670;2023-04-01T03:40:16;12.98;;;7.90;;
27558;SDS011;15002;52.028;5.670;2023-04-01T03:42:42;16.85;;;8.57;;
27558;SDS011;15002;52.028;5.670;2023-04-01T03:45:08;14.40;;;7.82;;
27558;SDS011;15002;52.028;5.670;2023-04-01T03:47:34;12.95;;;7.45;;
27558;SDS011;15002;52.028;5.670;2023-04-01T03:50:00;13.75;;;8.07;;
27558;SDS011;15002;52.028;5.670;2023-04-01T03:52:26;15.52;;;7.70;;
27558;SDS011;15002;52.028;5.670;2023-04-01T03:54:51;14.18;;;8.75;;
27558;SDS011;15002;52.028;5.670;2023-04-01T03:57:17;12.77;;;8.77;;
27558;SDS011;15002;52.028;5.670;2023-04-01T03:59:43;15.55;;;8.55;;
27558;SDS011;15002;52.028;5.670;2023-04-01T04:02:08;12.70;;;8.57;;
27558;SDS011;15002;52.028;5.670;2023-04-01T04:04:34;14.50;;;8.98;;
27558;SDS011;15002;52.028;5.670;2023-04-01T04:07:00;12.68;;;9.68;;
27558;SDS011;15002;52.028;5.670;2023-04-01T04:09:26;13.10;;;9.25;;
27558;SDS011;15002;52.028;5.670;2023-04-01T04:11:52;14.82;;;9.20;;
27558;SDS011;15002;52.028;5.670;2023-04-01T04:14:17;15.13;;;9.90;;
27558;SDS011;15002;52.028;5.670;2023-04-01T04:16:43;15.10;;;9.85;;
27558;SDS011;15002;52.028;5.670;2023-04-01T04:19:09;14.05;;;9.32;;
27558;SDS011;15002;52.028;5.670;2023-04-01T04:21:35;14.38;;;9.13;;
27558;SDS011;15002;52.028;5.670;2023-04-01T04:24:00;10.77;;;7.78;;
27558;SDS011;15002;52.028;5.670;2023-04-01T04:26:28;11.82;;;8.18;;
27558;SDS011;15002;52.028;5.670;2023-04-01T04:28:54;13.18;;;8.20;;
27558;SDS011;15002;52.028;5.670;2023-04-01T04:31:21;12.50;;;8.27;;
27558;SDS011;15002;52.028;5.670;2023-04-01T04:33:48;11.88;;;7.80;;
27558;SDS011;15002;52.028;5.670;2023-04-01T04:36:13;10.63;;;7.25;;
27558;SDS011;15002;52.028;5.670;2023-04-01T04:38:39;9.90;;;7.07;;
27558;SDS011;15002;52.028;5.670;2023-04-01T04:41:09;12.25;;;6.85;;
27558;SDS011;15002;52.028;5.670;2023-04-01T04:43:36;10.75;;;7.20;;
27558;SDS011;15002;52.028;5.670;2023-04-01T04:46:06;10.20;;;7.38;;
27558;SDS011;15002;52.028;5.670;2023-04-01T04:48:33;11.85;;;7.25;;
27558;SDS011;15002;52.028;5.670;2023-04-01T04:50:59;10.45;;;7.13;;
27558;SDS011;15002;52.028;5.670;2023-04-01T04:53:24;12.93;;;6.88;;
27558;SDS011;15002;52.028;5.670;2023-04-01T04:55:51;13.45;;;7.80;;
27558;SDS011;15002;52.028;5.670;2023-04-01T04:58:16;11.32;;;7.63;;
27558;SDS011;15002;52.028;5.670;2023-04-01T05:00:43;11.00;;;6.53;;
27558;SDS011;15002;52.028;5.670;2023-04-01T05:03:09;10.68;;;6.68;;
27558;SDS011;15002;52.028;5.670;2023-04-01T05:05:36;10.55;;;6.70;;
27558;SDS011;15002;52.028;5.670;2023-04-01T05:08:02;11.65;;;6.90;;
27558;SDS011;15002;52.028;5.670;2023-04-01T05:10:28;10.90;;;6.85;;
27558;SDS011;15002;52.028;5.670;2023-04-01T05:12:54;9.70;;;6.28;;
27558;SDS011;15002;52.028;5.670;2023-04-01T05:15:20;12.52;;;5.90;;
27558;SDS011;15002;52.028;5.670;2023-04-01T05:17:45;9.15;;;5.75;;
27558;SDS011;15002;52.028;5.670;2023-04-01T05:20:12;10.82;;;6.28;;
27558;SDS011;15002;52.028;5.670;2023-04-01T05:22:39;10.10;;;6.25;;
27558;SDS011;15002;52.028;5.670;2023-04-01T05:25:05;11.93;;;6.85;;
27558;SDS011;15002;52.028;5.670;2023-04-01T05:27:31;11.70;;;6.75;;
27558;SDS011;15002;52.028;5.670;2023-04-01T05:29:57;10.35;;;6.45;;
27558;SDS011;15002;52.028;5.670;2023-04-01T05:32:22;10.48;;;6.80;;
27558;SDS011;15002;52.028;5.670;2023-04-01T05:34:51;11.00;;;7.00;;
27558;SDS011;15002;52.028;5.670;2023-04-01T05:37:17;9.95;;;6.65;;
27558;SDS011;15002;52.028;5.670;2023-04-01T05:39:43;10.00;;;6.47;;
27558;SDS011;15002;52.028;5.670;2023-04-01T05:42:09;9.45;;;6.40;;
27558;SDS011;15002;52.028;5.670;2023-04-01T05:44:35;10.75;;;6.72;;
27558;SDS011;15002;52.028;5.670;2023-04-01T05:47:01;9.60;;;6.70;;
27558;SDS011;15002;52.028;5.670;2023-04-01T05:49:29;9.55;;;6.45;;
27558;SDS011;15002;52.028;5.670;2023-04-01T05:51:54;9.73;;;6.65;;
27558;SDS011;15002;52.028;5.670;2023-04-01T05:54:21;10.35;;;6.95;;
27558;SDS011;15002;52.028;5.670;2023-04-01T05:56:46;10.52;;;6.90;;
27558;SDS011;15002;52.028;5.670;2023-04-01T05:59:12;10.05;;;6.53;;
27558;SDS011;15002;52.028;5.670;2023-04-01T06:01:38;11.93;;;6.45;;
27558;SDS011;15002;52.028;5.670;2023-04-01T06:04:04;10.70;;;7.22;;
27558;SDS011;15002;52.028;5.670;2023-04-01T06:06:30;10.10;;;5.97;;
27558;SDS011;15002;52.028;5.670;2023-04-01T06:08:58;10.65;;;6.70;;
27558;SDS011;15002;52.028;5.670;2023-04-01T06:20:27;10.18;;;5.60;;
27558;SDS011;15002;52.028;5.670;2023-04-01T06:35:17;4.95;;;3.25;;
27558;SDS011;15002;52.028;5.670;2023-04-01T06:40:49;7.10;;;3.22;;
27558;SDS011;15002;52.028;5.670;2023-04-01T06:46:57;6.43;;;3.55;;
27558;SDS011;15002;52.028;5.670;2023-04-01T06:55:28;3.40;;;2.50;;
27558;SDS011;15002;52.028;5.670;2023-04-01T06:57:47;3.45;;;2.40;;
27558;SDS011;15002;52.028;5.670;2023-04-01T07:00:20;4.03;;;2.65;;
27558;SDS011;15002;52.028;5.670;2023-04-01T07:03:00;4.00;;;2.40;;
27558;SDS011;15002;52.028;5.670;2023-04-01T07:05:28;3.72;;;1.85;;
27558;SDS011;15002;52.028;5.670;2023-04-01T07:07:57;3.58;;;2.25;;
27558;SDS011;15002;52.028;5.670;2023-04-01T07:13:28;4.35;;;2.85;;
27558;SDS011;15002;52.028;5.670;2023-04-01T07:16:37;4.07;;;2.50;;
27558;SDS011;15002;52.028;5.670;2023-04-01T07:19:09;5.13;;;2.85;;
27558;SDS011;15002;52.028;5.670;2023-04-01T07:22:00;4.05;;;2.25;;
27558;SDS011;15002;52.028;5.670;2023-04-01T07:24:39;6.45;;;2.50;;
27558;SDS011;15002;52.028;5.670;2023-04-01T07:27:09;3.53;;;2.30;;
27558;SDS011;15002;52.028;5.670;2023-04-01T07:29:36;3.20;;;2.10;;
27558;SDS011;15002;52.028;5.670;2023-04-01T07:35:07;3.15;;;2.15;;
27558;SDS011;15002;52.028;5.670;2023-04-01T07:38:09;3.15;;;1.90;;
27558;SDS011;15002;52.028;5.670;2023-04-01T07:41:13;3.35;;;2.15;;
27558;SDS011;15002;52.028;5.670;2023-04-01T07:43:59;2.72;;;1.80;;
27558;SDS011;15002;52.028;5.670;2023-04-01T07:52:06;1.73;;;1.23;;
27558;SDS011;15002;52.028;5.670;2023-04-01T07:55:08;5.03;;;2.55;;
27558;SDS011;15002;52.028;5.670;2023-04-01T07:57:50;3.97;;;2.33;;
27558;SDS011;15002;52.028;5.670;2023-04-01T08:06:19;2.90;;;2.00;;
27558;SDS011;15002;52.028;5.670;2023-04-01T08:21:41;4.00;;;2.47;;
27558;SDS011;15002;52.028;5.670;2023-04-01T08:26:42;3.97;;;2.70;;
27558;SDS011;15002;52.028;5.670;2023-04-01T08:31:49;3.55;;;2.05;;
27558;SDS011;15002;52.028;5.670;2023-04-01T08:34:21;3.45;;;2.40;;
27558;SDS011;15002;52.028;5.670;2023-04-01T08:36:57;4.18;;;2.30;;
27558;SDS011;15002;52.028;5.670;2023-04-01T08:42:07;4.15;;;2.92;;
27558;SDS011;15002;52.028;5.670;2023-04-01T08:50:21;4.50;;;3.00;;
27558;SDS011;15002;52.028;5.670;2023-04-01T08:55:56;4.50;;;3.20;;
27558;SDS011;15002;52.028;5.670;2023-04-01T08:59:04;5.38;;;3.78;;
27558;SDS011;15002;52.028;5.670;2023-04-01T09:13:48;7.78;;;4.93;;
27558;SDS011;15002;52.028;5.670;2023-04-01T09:21:47;7.47;;;3.95;;
27558;SDS011;15002;52.028;5.670;2023-04-01T09:35:39;7.85;;;5.50;;
27558;SDS011;15002;52.028;5.670;2023-04-01T09:43:56;8.65;;;5.78;;
27558;SDS011;15002;52.028;5.670;2023-04-01T09:57:34;9.38;;;5.88;;
27558;SDS011;15002;52.028;5.670;2023-04-01T10:25:36;8.45;;;5.55;;
27558;SDS011;15002;52.028;5.670;2023-04-01T10:36:59;7.68;;;5.60;;
27558;SDS011;15002;52.028;5.670;2023-04-01T10:45:37;9.25;;;5.70;;
27558;SDS011;15002;52.028;5.670;2023-04-01T10:48:14;10.20;;;6.22;;
27558;SDS011;15002;52.028;5.670;2023-04-01T10:56:46;7.88;;;5.43;;
27558;SDS011;15002;52.028;5.670;2023-04-01T11:07:46;5.88;;;4.10;;
27558;SDS011;15002;52.028;5.670;2023-04-01T11:13:44;4.88;;;3.30;;
27558;SDS011;15002;52.028;5.670;2023-04-01T11:16:31;5.15;;;3.22;;
27558;SDS011;15002;52.028;5.670;2023-04-01T11:19:23;5.03;;;3.58;;
27558;SDS011;15002;52.028;5.670;2023-04-01T11:33:02;4.65;;;3.75;;
27558;SDS011;15002;52.028;5.670;2023-04-01T11:35:49;5.07;;;3.70;;
27558;SDS011;15002;52.028;5.670;2023-04-01T11:39:00;6.25;;;3.97;;
27558;SDS011;15002;52.028;5.670;2023-04-01T11:44:39;2.33;;;1.85;;
27558;SDS011;15002;52.028;5.670;2023-04-01T11:47:27;2.40;;;1.80;;
27558;SDS011;15002;52.028;5.670;2023-04-01T11:56:02;3.22;;;2.40;;
27558;SDS011;15002;52.028;5.670;2023-04-01T12:01:53;2.85;;;2.03;;
27558;SDS011;15002;52.028;5.670;2023-04-01T12:04:41;3.92;;;2.78;;
27558;SDS011;15002;52.028;5.670;2023-04-01T12:07:23;3.25;;;2.53;;
27558;SDS011;15002;52.028;5.670;2023-04-01T12:12:32;4.40;;;3.05;;
27558;SDS011;15002;52.028;5.670;2023-04-01T12:15:50;4.00;;;2.80;;
27558;SDS011;15002;52.028;5.670;2023-04-01T12:23:42;3.78;;;2.70;;
27558;SDS011;15002;52.028;5.670;2023-04-01T12:31:58;5.30;;;3.40;;
27558;SDS011;15002;52.028;5.670;2023-04-01T12:57:02;3.88;;;3.13;;
27558;SDS011;15002;52.028;5.670;2023-04-01T13:13:36;5.03;;;3.38;;
27558;SDS011;15002;52.028;5.670;2023-04-01T13:16:20;4.13;;;3.00;;
27558;SDS011;15002;52.028;5.670;2023-04-01T13:19:13;3.90;;;2.97;;
27558;SDS011;15002;52.028;5.670;2023-04-01T13:21:54;4.35;;;3.25;;
27558;SDS011;15002;52.028;5.670;2023-04-01T13:27:18;4.68;;;3.42;;
27558;SDS011;15002;52.028;5.670;2023-04-01T13:29:59;5.85;;;3.83;;
27558;SDS011;15002;52.028;5.670;2023-04-01T13:35:26;4.88;;;3.75;;
27558;SDS011;15002;52.028;5.670;2023-04-01T13:40:59;5.15;;;3.50;;
27558;SDS011;15002;52.028;5.670;2023-04-01T13:43:36;4.65;;;3.30;;
27558;SDS011;15002;52.028;5.670;2023-04-01T14:03:48;8.98;;;5.03;;
27558;SDS011;15002;52.028;5.670;2023-04-01T14:06:31;6.60;;;3.97;;
27558;SDS011;15002;52.028;5.670;2023-04-01T14:10:07;6.90;;;4.30;;
27558;SDS011;15002;52.028;5.670;2023-04-01T14:15:21;4.78;;;3.50;;
27558;SDS011;15002;52.028;5.670;2023-04-01T14:21:14;5.18;;;3.30;;
27558;SDS011;15002;52.028;5.670;2023-04-01T14:23:49;4.68;;;3.35;;
27558;SDS011;15002;52.028;5.670;2023-04-01T14:37:03;6.80;;;3.72;;
27558;SDS011;15002;52.028;5.670;2023-04-01T14:48:57;3.78;;;2.50;;
27558;SDS011;15002;52.028;5.670;2023-04-01T14:51:33;4.25;;;2.58;;
27558;SDS011;15002;52.028;5.670;2023-04-01T14:54:05;7.07;;;2.67;;
27558;SDS011;15002;52.028;5.670;2023-04-01T14:59:48;3.55;;;2.72;;
27558;SDS011;15002;52.028;5.670;2023-04-01T15:02:02;3.22;;;2.50;;
27558;SDS011;15002;52.028;5.670;2023-04-01T15:04:52;3.63;;;2.88;;
27558;SDS011;15002;52.028;5.670;2023-04-01T15:13:13;4.82;;;3.58;;
27558;SDS011;15002;52.028;5.670;2023-04-01T15:19:16;5.18;;;3.95;;
27558;SDS011;15002;52.028;5.670;2023-04-01T15:24:23;6.13;;;4.28;;
27558;SDS011;15002;52.028;5.670;2023-04-01T15:29:33;6.40;;;4.18;;
27558;SDS011;15002;52.028;5.670;2023-04-01T15:54:52;5.40;;;3.88;;
27558;SDS011;15002;52.028;5.670;2023-04-01T16:03:52;4.78;;;4.20;;
27558;SDS011;15002;52.028;5.670;2023-04-01T16:11:57;4.10;;;3.70;;
27558;SDS011;15002;52.028;5.670;2023-04-01T16:14:44;4.82;;;3.95;;
27558;SDS011;15002;52.028;5.670;2023-04-01T16:20:18;5.93;;;4.38;;
27558;SDS011;15002;52.028;5.670;2023-04-01T16:25:57;3.70;;;3.20;;
27558;SDS011;15002;52.028;5.670;2023-04-01T16:29:16;5.10;;;3.80;;
27558;SDS011;15002;52.028;5.670;2023-04-01T16:31:45;6.47;;;3.67;;
27558;SDS011;15002;52.028;5.670;2023-04-01T16:37:00;4.90;;;3.92;;
27558;SDS011;15002;52.028;5.670;2023-04-01T16:42:17;4.75;;;3.63;;
27558;SDS011;15002;52.028;5.670;2023-04-01T16:47:34;4.57;;;3.75;;
27558;SDS011;15002;52.028;5.670;2023-04-01T16:50:06;4.18;;;3.22;;
27558;SDS011;15002;52.028;5.670;2023-04-01T16:55:20;3.20;;;2.78;;
27558;SDS011;15002;52.028;5.670;2023-04-01T16:57:50;5.05;;;3.30;;
27558;SDS011;15002;52.028;5.670;2023-04-01T17:00:26;5.07;;;3.57;;
27558;SDS011;15002;52.028;5.670;2023-04-01T17:19:55;5.35;;;4.32;;
27558;SDS011;15002;52.028;5.670;2023-04-01T17:28:44;5.75;;;4.53;;
27558;SDS011;15002;52.028;5.670;2023-04-01T17:31:21;5.57;;;4.13;;
27558;SDS011;15002;52.028;5.670;2023-04-01T17:42:50;6.65;;;5.10;;
27558;SDS011;15002;52.028;5.670;2023-04-01T17:45:28;6.07;;;4.45;;
27558;SDS011;15002;52.028;5.670;2023-04-01T17:54:14;5.88;;;4.60;;
27558;SDS011;15002;52.028;5.670;2023-04-01T17:59:52;8.98;;;5.72;;
27558;SDS011;15002;52.028;5.670;2023-04-01T18:05:33;7.13;;;5.38;;
27558;SDS011;15002;52.028;5.670;2023-04-01T18:08:46;7.25;;;5.47;;
27558;SDS011;15002;52.028;5.670;2023-04-01T18:23:11;6.40;;;4.55;;
27558;SDS011;15002;52.028;5.670;2023-04-01T18:25:47;7.15;;;5.07;;
27558;SDS011;15002;52.028;5.670;2023-04-01T18:28:26;5.68;;;4.65;;
27558;SDS011;15002;52.028;5.670;2023-04-01T18:36:40;6.07;;;4.63;;
27558;SDS011;15002;52.028;5.670;2023-04-01T18:41:43;5.85;;;4.47;;
27558;SDS011;15002;52.028;5.670;2023-04-01T18:44:41;7.05;;;4.82;;
27558;SDS011;15002;52.028;5.670;2023-04-01T18:50:22;5.55;;;4.03;;
27558;SDS011;15002;52.028;5.670;2023-04-01T18:55:46;9.60;;;5.70;;
27558;SDS011;15002;52.028;5.670;2023-04-01T18:58:49;7.25;;;5.07;;
27558;SDS011;15002;52.028;5.670;2023-04-01T19:01:19;6.90;;;4.53;;
27558;SDS011;15002;52.028;5.670;2023-04-01T19:04:30;5.68;;;4.57;;
27558;SDS011;15002;52.028;5.670;2023-04-01T19:06:58;4.85;;;4.20;;
27558;SDS011;15002;52.028;5.670;2023-04-01T19:09:32;6.60;;;4.32;;
27558;SDS011;15002;52.028;5.670;2023-04-01T19:15:16;5.35;;;4.22;;
27558;SDS011;15002;52.028;5.670;2023-04-01T19:20:55;5.45;;;4.28;;
27558;SDS011;15002;52.028;5.670;2023-04-01T19:26:19;7.27;;;4.33;;
27558;SDS011;15002;52.028;5.670;2023-04-01T19:37:39;4.90;;;3.70;;
27558;SDS011;15002;52.028;5.670;2023-04-01T19:40:21;5.13;;;4.15;;
27558;SDS011;15002;52.028;5.670;2023-04-01T19:45:57;5.00;;;4.18;;
27558;SDS011;15002;52.028;5.670;2023-04-01T19:56:39;7.05;;;4.85;;
27558;SDS011;15002;52.028;5.670;2023-04-01T19:59:28;6.55;;;4.88;;
27558;SDS011;15002;52.028;5.670;2023-04-01T20:02:26;6.68;;;5.13;;
27558;SDS011;15002;52.028;5.670;2023-04-01T20:04:53;7.75;;;5.32;;
27558;SDS011;15002;52.028;5.670;2023-04-01T20:07:31;8.05;;;6.00;;
27558;SDS011;15002;52.028;5.670;2023-04-01T20:10:17;7.07;;;5.47;;
27558;SDS011;15002;52.028;5.670;2023-04-01T20:15:30;7.82;;;5.90;;
27558;SDS011;15002;52.028;5.670;2023-04-01T20:18:19;7.65;;;5.95;;
27558;SDS011;15002;52.028;5.670;2023-04-01T20:21:03;8.85;;;6.68;;
27558;SDS011;15002;52.028;5.670;2023-04-01T20:23:50;10.82;;;7.93;;
27558;SDS011;15002;52.028;5.670;2023-04-01T20:26:22;8.93;;;6.57;;
27558;SDS011;15002;52.028;5.670;2023-04-01T20:29:20;11.70;;;8.35;;
27558;SDS011;15002;52.028;5.670;2023-04-01T20:40:26;12.82;;;9.02;;
27558;SDS011;15002;52.028;5.670;2023-04-01T20:52:02;15.10;;;10.10;;
27558;SDS011;15002;52.028;5.670;2023-04-01T20:57:19;13.27;;;8.95;;
27558;SDS011;15002;52.028;5.670;2023-04-01T20:59:56;12.38;;;8.13;;
27558;SDS011;15002;52.028;5.670;2023-04-01T21:02:52;15.70;;;10.35;;
27558;SDS011;15002;52.028;5.670;2023-04-01T21:05:34;14.30;;;9.85;;
27558;SDS011;15002;52.028;5.670;2023-04-01T21:11:25;16.02;;;10.57;;
27558;SDS011;15002;52.028;5.670;2023-04-01T21:24:34;11.82;;;8.52;;
27558;SDS011;15002;52.028;5.670;2023-04-01T21:27:15;12.38;;;9.02;;
27558;SDS011;15002;52.028;5.670;2023-04-01T21:40:58;11.75;;;8.63;;
27558;SDS011;15002;52.028;5.670;2023-04-01T22:02:55;10.48;;;7.45;;
27558;SDS011;15002;52.028;5.670;2023-04-01T22:05:39;13.18;;;7.07;;
27558;SDS011;15002;52.028;5.670;2023-04-01T22:19:19;12.85;;;8.73;;
27558;SDS011;15002;52.028;5.670;2023-04-01T22:22:10;11.95;;;8.90;;
27558;SDS011;15002;52.028;5.670;2023-04-01T22:27:42;11.82;;;8.40;;
27558;SDS011;15002;52.028;5.670;2023-04-01T22:33:25;12.48;;;9.05;;
27558;SDS011;15002;52.028;5.670;2023-04-01T22:56:11;12.02;;;8.20;;
27558;SDS011;15002;52.028;5.670;2023-04-01T22:58:53;17.02;;;10.70;;
27558;SDS011;15002;52.028;5.670;2023-04-01T23:01:25;13.60;;;9.65;;
27558;SDS011;15002;52.028;5.670;2023-04-01T23:03:56;14.43;;;10.05;;
27558;SDS011;15002;52.028;5.670;2023-04-01T23:06:25;15.02;;;10.27;;
27558;SDS011;15002;52.028;5.670;2023-04-01T23:11:28;13.32;;;7.70;;
27558;SDS011;15002;52.028;5.670;2023-04-01T23:16:31;14.03;;;9.67;;
27558;SDS011;15002;52.028;5.670;2023-04-01T23:21:45;16.98;;;10.93;;
27558;SDS011;15002;52.028;5.670;2023-04-01T23:27:16;16.50;;;10.02;;
27558;SDS011;15002;52.028;5.670;2023-04-01T23:29:48;14.82;;;10.13;;
27558;SDS011;15002;52.028;5.670;2023-04-01T23:32:15;10.10;;;7.60;;
27558;SDS011;15002;52.028;5.670;2023-04-01T23:34:47;17.23;;;10.57;;
27558;SDS011;15002;52.028;5.670;2023-04-01T23:37:15;16.98;;;11.93;;
27558;SDS011;15002;52.028;5.670;2023-04-01T23:39:46;12.77;;;9.50;;
27558;SDS011;15002;52.028;5.670;2023-04-01T23:42:18;14.15;;;9.77;;
27558;SDS011;15002;52.028;5.670;2023-04-01T23:44:47;10.90;;;7.85;;
27558;SDS011;15002;52.028;5.670;2023-04-01T23:47:17;15.57;;;10.80;;
27558;SDS011;15002;52.028;5.670;2023-04-01T23:49:49;14.93;;;10.60;;
27558;SDS011;15002;52.028;5.670;2023-04-01T23:52:21;15.07;;;10.32;;
27558;SDS011;15002;52.028;5.670;2023-04-01T23:57:35;13.93;;;10.57;;
